createdAt,value
2018-08-18T00:03:44.876Z,25.5
2018-08-18T00:08:42.725Z,25.5
2018-08-18T00:13:40.778Z,25
2018-08-18T00:18:38.686Z,25.4
2018-08-18T00:23:35.717Z,25.4
2018-08-18T00:28:33.478Z,25.3
2018-08-18T00:33:31.400Z,25.3
2018-08-18T00:38:29.116Z,25.3
2018-08-18T00:43:26.935Z,25.2
2018-08-18T00:48:24.688Z,25.2
2018-08-18T00:53:22.231Z,24.7
2018-08-18T00:58:19.581Z,25.1
2018-08-18T01:03:17.570Z,24.6
2018-08-18T01:08:15.007Z,25
2018-08-18T01:13:12.651Z,25
2018-08-18T01:18:10.608Z,24.9
2018-08-18T01:23:08.633Z,24.9
2018-08-18T01:28:06.353Z,24.8
2018-08-18T01:33:04.214Z,24.8
2018-08-18T01:38:02.356Z,24.7
2018-08-18T01:43:00.134Z,24.7
2018-08-18T01:47:58.015Z,24.7
2018-08-18T01:52:55.767Z,24.6
2018-08-18T01:57:53.681Z,24.1
2018-08-18T02:02:51.513Z,24.5
2018-08-18T02:07:49.574Z,24.1
2018-08-18T02:12:47.346Z,24
2018-08-18T02:17:45.229Z,23.9
2018-08-18T02:22:43.248Z,24.4
2018-08-18T02:27:41.217Z,23.9
2018-08-18T02:32:38.416Z,24.3
2018-08-18T02:37:36.385Z,24.3
2018-08-18T02:42:34.440Z,23.8
2018-08-18T02:47:32.181Z,24.2
2018-08-18T02:52:30.012Z,24.1
2018-08-18T02:57:27.935Z,24.1
2018-08-18T03:02:26.077Z,23.6
2018-08-18T03:07:24.035Z,24
2018-08-18T03:12:22.081Z,23.5
2018-08-18T03:17:20.018Z,23.5
2018-08-18T03:22:18.109Z,23.5
2018-08-18T03:27:16.070Z,23.5
2018-08-18T03:32:13.696Z,23.8
2018-08-18T03:37:11.632Z,23.8
2018-08-18T03:42:09.609Z,23.8
2018-08-18T03:47:07.477Z,23.7
2018-08-18T03:52:05.347Z,23.7
2018-08-18T03:57:03.093Z,23.7
2018-08-18T04:02:00.925Z,23.6
2018-08-18T04:06:59.225Z,23.6
2018-08-18T04:11:56.942Z,23.6
2018-08-18T04:16:54.915Z,23.1
2018-08-18T04:21:52.909Z,23.1
2018-08-18T04:26:50.558Z,23.6
2018-08-18T04:31:48.413Z,23.6
2018-08-18T04:36:46.143Z,23.6
2018-08-18T04:41:44.207Z,23.5
2018-08-18T04:46:41.638Z,23.1
2018-08-18T04:51:39.524Z,23.5
2018-08-18T04:56:37.356Z,23.5
2018-08-18T05:01:35.186Z,23
2018-08-18T05:06:33.000Z,23.5
2018-08-18T05:11:30.836Z,23.4
2018-08-18T05:16:28.559Z,23.4
2018-08-18T05:21:26.655Z,22.9
2018-08-18T05:26:24.201Z,23.4
2018-08-18T05:31:22.019Z,23.4
2018-08-18T05:36:19.880Z,23.4
2018-08-18T05:41:17.544Z,23.3
2018-08-18T05:46:15.581Z,23.3
2018-08-18T05:51:13.289Z,23.3
2018-08-18T05:56:11.042Z,23.3
2018-08-18T06:01:08.913Z,23.3
2018-08-18T06:06:06.414Z,22.8
2018-08-18T06:11:04.450Z,23.3
2018-08-18T06:16:02.376Z,22.8
2018-08-18T06:21:00.181Z,23.4
2018-08-18T06:25:58.274Z,23.4
2018-08-18T06:30:56.300Z,22.9
2018-08-18T06:35:54.144Z,23.4
2018-08-18T06:40:52.108Z,23.4
2018-08-18T06:45:50.017Z,23.3
2018-08-18T06:50:47.696Z,23.5
2018-08-18T06:55:45.727Z,23.5
2018-08-18T07:00:43.712Z,23.1
2018-08-18T07:05:41.689Z,23.6
2018-08-18T07:10:39.518Z,23.2
2018-08-18T07:15:37.259Z,23.7
2018-08-18T07:20:35.227Z,23.7
2018-08-18T07:25:33.084Z,23.3
2018-08-18T07:30:31.178Z,23.8
2018-08-18T07:35:28.535Z,23.8
2018-08-18T07:40:26.677Z,23.4
2018-08-18T07:45:24.660Z,23.9
2018-08-18T07:50:22.658Z,24
2018-08-18T07:55:20.683Z,23.6
2018-08-18T08:00:18.753Z,24.1
2018-08-18T08:05:16.630Z,24.2
2018-08-18T08:10:14.267Z,24.2
2018-08-18T08:15:12.696Z,23.9
2018-08-18T08:20:10.585Z,24.3
2018-08-18T08:25:08.567Z,24.2
2018-08-18T08:30:06.598Z,24
2018-08-18T08:35:04.713Z,24.5
2018-08-18T08:40:02.712Z,24.1
2018-08-18T08:45:01.192Z,24.7
2018-08-18T08:49:59.629Z,24.7
2018-08-18T08:54:58.072Z,24.4
2018-08-18T08:59:56.158Z,24.9
2018-08-18T09:04:53.703Z,24.9
2018-08-18T09:09:51.604Z,25
2018-08-18T09:14:48.896Z,25.1
2018-08-18T09:19:46.925Z,24.7
2018-08-18T09:24:44.522Z,25.2
2018-08-18T09:29:42.263Z,25.3
2018-08-18T09:34:40.161Z,25.4
2018-08-18T09:39:38.186Z,25
2018-08-18T09:44:36.267Z,25.5
2018-08-18T09:49:34.304Z,25.6
2018-08-18T09:54:32.212Z,25.7
2018-08-18T09:59:30.307Z,25.3
2018-08-18T10:04:28.199Z,25.8
2018-08-18T10:09:26.224Z,25.8
2018-08-18T10:14:24.321Z,24.8
2018-08-18T10:19:22.418Z,26
2018-08-18T10:24:20.553Z,25.6
2018-08-18T10:29:18.595Z,25.7
2018-08-18T10:34:16.674Z,25.7
2018-08-18T10:39:14.426Z,26.2
2018-08-18T10:44:11.968Z,26.3
2018-08-18T10:49:11.009Z,25.9
2018-08-18T10:54:09.023Z,25.7
2018-08-18T10:59:07.292Z,26.4
2018-08-18T11:04:05.365Z,26.1
2018-08-18T11:09:03.561Z,26.1
2018-08-18T11:14:01.150Z,26
2018-08-18T11:18:59.138Z,26.7
2018-08-18T11:23:57.023Z,26.7
2018-08-18T11:28:54.930Z,26.8
2018-08-18T11:33:53.132Z,26
2018-08-18T11:38:51.139Z,26.9
2018-08-18T11:43:49.068Z,26.3
2018-08-18T11:48:47.006Z,27
2018-08-18T11:53:45.189Z,26.5
2018-08-18T11:58:42.840Z,26.5
2018-08-18T12:03:40.782Z,27.2
2018-08-18T12:08:38.574Z,27.3
2018-08-18T12:13:36.499Z,27.4
2018-08-18T12:18:34.638Z,27.4
2018-08-18T12:23:32.719Z,26.6
2018-08-18T12:28:30.779Z,26.9
2018-08-18T12:33:28.640Z,27.6
2018-08-18T12:38:26.871Z,27.7
2018-08-18T12:43:24.668Z,27.8
2018-08-18T12:48:22.819Z,27.8
2018-08-18T12:53:20.707Z,27.9
2018-08-18T12:58:18.770Z,27.2
2018-08-18T13:03:16.795Z,28
2018-08-18T13:08:14.853Z,28.1
2018-08-18T13:13:12.932Z,28.2
2018-08-18T13:18:11.088Z,28.3
2018-08-18T13:23:08.906Z,28.4
2018-08-18T13:28:07.507Z,28.4
2018-08-18T13:33:06.715Z,27.9
2018-08-18T13:38:05.034Z,28.6
2018-08-18T13:43:03.200Z,28.7
2018-08-18T13:48:01.105Z,28.7
2018-08-18T13:52:59.120Z,28.8
2018-08-18T13:57:57.245Z,28.4
2018-08-18T14:02:55.291Z,29
2018-08-18T14:07:53.918Z,28.9
2018-08-18T14:12:51.792Z,29.1
2018-08-18T14:17:50.116Z,28.9
2018-08-18T14:22:48.130Z,29
2018-08-18T14:27:46.277Z,29.2
2018-08-18T14:32:44.316Z,29.3
2018-08-18T14:37:42.515Z,28.9
2018-08-18T14:42:41.183Z,29.1
2018-08-18T14:47:39.307Z,29.3
2018-08-18T14:52:37.293Z,29.4
2018-08-18T14:57:34.864Z,29.4
2018-08-18T15:02:33.148Z,29
2018-08-18T15:07:31.118Z,29.4
2018-08-18T15:12:28.722Z,29.4
2018-08-18T15:17:26.761Z,29.4
2018-08-18T15:22:25.777Z,29.2
2018-08-18T15:27:23.281Z,29
2018-08-18T15:32:21.327Z,29.4
2018-08-18T15:37:19.311Z,29.2
2018-08-18T15:42:17.583Z,29.4
2018-08-18T15:47:15.682Z,29.2
2018-08-18T15:52:14.127Z,29.4
2018-08-18T15:57:12.568Z,29.4
2018-08-18T16:02:11.503Z,29.4
2018-08-18T16:07:10.179Z,29.1
2018-08-18T16:12:08.051Z,29.4
2018-08-18T16:17:05.930Z,29.3
2018-08-18T16:22:04.446Z,29.3
2018-08-18T16:27:02.969Z,28.9
2018-08-18T16:32:01.036Z,29.3
2018-08-18T16:36:59.007Z,29.3
2018-08-18T16:41:56.992Z,29.3
2018-08-18T16:46:55.019Z,29.1
2018-08-18T16:51:52.905Z,29.3
2018-08-18T16:56:51.443Z,29.3
2018-08-18T17:01:50.029Z,29.3
2018-08-18T17:06:48.123Z,28.9
2018-08-18T17:11:46.155Z,29
2018-08-18T17:16:44.084Z,29.2
2018-08-18T17:21:42.182Z,29.2
2018-08-18T17:26:40.250Z,29
2018-08-18T17:31:38.230Z,29
2018-08-18T17:36:36.113Z,29.1
2018-08-18T17:41:34.106Z,29.1
2018-08-18T17:46:32.029Z,29.1
2018-08-18T17:51:29.940Z,28.9
2018-08-18T17:56:27.105Z,29
2018-08-18T18:01:25.177Z,28.8
2018-08-18T18:06:22.801Z,28.6
2018-08-18T18:11:21.011Z,29
2018-08-18T18:16:18.984Z,28.9
2018-08-18T18:21:16.813Z,28.9
2018-08-18T18:26:14.675Z,28.9
2018-08-18T18:31:12.661Z,28.8
2018-08-18T18:36:10.611Z,28.8
2018-08-18T18:41:08.157Z,28.7
2018-08-18T18:46:06.123Z,28.7
2018-08-18T18:51:04.269Z,28.7
2018-08-18T18:56:02.264Z,28.2
2018-08-18T19:01:00.427Z,28
2018-08-18T19:05:58.686Z,28.5
2018-08-18T19:10:56.824Z,28.3
2018-08-18T19:15:54.743Z,28.5
2018-08-18T19:20:52.596Z,28.4
2018-08-18T19:25:50.577Z,28.4
2018-08-18T19:30:48.568Z,28.3
2018-08-18T19:35:46.487Z,28.3
2018-08-18T19:40:44.330Z,28.2
2018-08-18T19:45:42.455Z,28.2
2018-08-18T19:50:40.205Z,28.1
2018-08-18T19:55:38.446Z,28.1
2018-08-18T20:00:36.469Z,28
2018-08-18T20:05:34.335Z,28
2018-08-18T20:10:32.290Z,27.9
2018-08-18T20:15:30.461Z,27.9
2018-08-18T20:20:28.446Z,27.2
2018-08-18T20:25:26.436Z,27.8
2018-08-18T20:30:24.899Z,27.7
2018-08-18T20:35:23.551Z,27.7
2018-08-18T20:40:21.540Z,27.6
2018-08-18T20:45:19.847Z,27.2
2018-08-18T20:50:17.795Z,27.5
2018-08-18T20:55:15.579Z,27.5
2018-08-18T21:00:13.869Z,27
2018-08-18T21:05:11.954Z,27.4
2018-08-18T21:10:10.215Z,27.4
2018-08-18T21:15:08.116Z,27.3
2018-08-18T21:20:06.318Z,27.2
2018-08-18T21:25:03.526Z,27.2
2018-08-18T21:30:01.356Z,27.2
2018-08-18T21:34:59.184Z,27.1
2018-08-18T21:39:56.498Z,27.1
2018-08-18T21:44:54.607Z,26.5
2018-08-18T21:49:52.537Z,26.5
2018-08-18T21:54:50.660Z,26.9
2018-08-18T21:59:48.689Z,26.5
2018-08-18T22:04:46.349Z,26.8
2018-08-18T22:09:44.041Z,26.8
2018-08-18T22:14:41.779Z,25.9
2018-08-18T22:19:39.630Z,26.7
2018-08-18T22:24:37.808Z,26.6
2018-08-18T22:29:35.548Z,26.6
2018-08-18T22:34:33.622Z,26.6
2018-08-18T22:39:31.597Z,26.1
2018-08-18T22:44:29.424Z,26.5
2018-08-18T22:49:27.265Z,26.5
2018-08-18T22:54:25.052Z,26.4
2018-08-18T22:59:22.993Z,26.4
2018-08-18T23:04:20.828Z,26.3
2018-08-18T23:09:18.410Z,26.3
2018-08-18T23:14:16.385Z,26.2
2018-08-18T23:19:14.336Z,26.2
2018-08-18T23:24:12.119Z,26.2
2018-08-18T23:29:10.033Z,26.1
2018-08-18T23:34:07.983Z,26.1
2018-08-18T23:39:05.915Z,25.6
2018-08-18T23:44:04.105Z,25.6
2018-08-18T23:49:01.970Z,26
2018-08-18T23:53:59.848Z,25.9
2018-08-18T23:58:57.970Z,25.9
